Terminal Aerodrome Forecast
Issued by NWS

Home | Current Version | Previous Version | Text Only | Print | Product List | Glossary On
Versions: 1 2 3 4 5 6 7 8 9 10 11 12 13 14 15 16 17 18 19 20 21 22 23 24 25 26 27
000
FTUS43 KPAH 251120
TAFCGI
TAF
KCGI 251120Z 2512/2612 18010G20KT P6SM OVC015
      TEMPO 2512/2514 5SM SHRA BR SCT015 BKN040
     FM251400 18010KT P6SM VCSH SCT015 BKN040
     FM252100 18008KT P6SM OVC050
     FM260600 17007KT 6SM -SHRA BR OVC020=

USA.gov is the U.S. government's official web portal to all federal, state and local government web resources and services.